sensor_id;sensor_type;location;lat;lon;timestamp;P1;P2;P0
68698;PMS7003;55680;48.850;2.310;2023-09-07T00:00:42;2.25;2.00;2.00
68698;PMS7003;55680;48.850;2.310;2023-09-07T00:03:08;6.25;3.75;3.00
68698;PMS7003;55680;48.850;2.310;2023-09-07T00:05:33;4.75;2.50;2.25
68698;PMS7003;55680;48.850;2.310;2023-09-07T00:07:59;2.00;2.00;1.25
68698;PMS7003;55680;48.850;2.310;2023-09-07T00:10:25;1.00;1.00;1.00
68698;PMS7003;55680;48.850;2.310;2023-09-07T00:12:51;2.00;1.00;0.25
68698;PMS7003;55680;48.850;2.310;2023-09-07T00:15:17;3.25;1.50;1.00
68698;PMS7003;55680;48.850;2.310;2023-09-07T00:17:45;1.00;1.00;0.25
68698;PMS7003;55680;48.850;2.310;2023-09-07T00:20:10;1.00;1.00;0.75
68698;PMS7003;55680;48.850;2.310;2023-09-07T00:22:39;2.00;2.00;1.50
68698;PMS7003;55680;48.850;2.310;2023-09-07T00:25:06;2.00;1.50;1.00
68698;PMS7003;55680;48.850;2.310;2023-09-07T00:27:33;1.75;1.75;1.50
68698;PMS7003;55680;48.850;2.310;2023-09-07T00:29:59;2.50;1.25;1.00
68698;PMS7003;55680;48.850;2.310;2023-09-07T00:32:26;2.00;2.00;1.25
68698;PMS7003;55680;48.850;2.310;2023-09-07T00:34:51;2.00;2.00;2.00
68698;PMS7003;55680;48.850;2.310;2023-09-07T00:37:17;1.00;1.00;1.00
68698;PMS7003;55680;48.850;2.310;2023-09-07T00:39:42;4.50;2.00;1.00
68698;PMS7003;55680;48.850;2.310;2023-09-07T00:42:08;1.00;1.00;1.00
68698;PMS7003;55680;48.850;2.310;2023-09-07T00:44:34;4.75;3.00;2.00
68698;PMS7003;55680;48.850;2.310;2023-09-07T00:47:01;5.50;1.50;1.00
68698;PMS7003;55680;48.850;2.310;2023-09-07T00:49:27;2.75;1.50;0.75
68698;PMS7003;55680;48.850;2.310;2023-09-07T00:51:52;0.00;0.00;0.00
68698;PMS7003;55680;48.850;2.310;2023-09-07T00:54:18;1.00;1.00;0.75
68698;PMS7003;55680;48.850;2.310;2023-09-07T00:56:44;2.00;2.00;1.00
68698;PMS7003;55680;48.850;2.310;2023-09-07T00:59:10;2.25;2.00;1.00
68698;PMS7003;55680;48.850;2.310;2023-09-07T01:01:36;1.75;1.75;1.25
68698;PMS7003;55680;48.850;2.310;2023-09-07T01:04:02;3.75;3.75;2.00
68698;PMS7003;55680;48.850;2.310;2023-09-07T01:06:38;4.25;4.25;3.00
68698;PMS7003;55680;48.850;2.310;2023-09-07T01:09:10;1.25;1.25;1.00
68698;PMS7003;55680;48.850;2.310;2023-09-07T01:11:39;2.50;2.00;1.00
68698;PMS7003;55680;48.850;2.310;2023-09-07T01:14:04;1.00;1.00;0.75
68698;PMS7003;55680;48.850;2.310;2023-09-07T01:16:31;1.75;0.50;0.25
68698;PMS7003;55680;48.850;2.310;2023-09-07T01:19:01;2.00;0.50;0.50
68698;PMS7003;55680;48.850;2.310;2023-09-07T01:21:27;4.00;2.75;2.00
68698;PMS7003;55680;48.850;2.310;2023-09-07T01:23:59;2.00;2.00;2.00
68698;PMS7003;55680;48.850;2.310;2023-09-07T01:26:25;1.00;1.00;1.00
68698;PMS7003;55680;48.850;2.310;2023-09-07T01:28:52;1.50;1.50;1.50
68698;PMS7003;55680;48.850;2.310;2023-09-07T01:31:17;2.00;2.00;1.00
68698;PMS7003;55680;48.850;2.310;2023-09-07T01:33:43;0.25;0.00;0.00
68698;PMS7003;55680;48.850;2.310;2023-09-07T01:36:09;0.75;0.75;0.25
68698;PMS7003;55680;48.850;2.310;2023-09-07T01:38:37;1.00;1.00;1.00
68698;PMS7003;55680;48.850;2.310;2023-09-07T01:41:05;1.00;1.00;1.00
68698;PMS7003;55680;48.850;2.310;2023-09-07T01:43:30;2.75;2.75;1.50
68698;PMS7003;55680;48.850;2.310;2023-09-07T01:45:56;1.00;1.00;1.00
68698;PMS7003;55680;48.850;2.310;2023-09-07T01:48:22;2.00;2.00;1.00
68698;PMS7003;55680;48.850;2.310;2023-09-07T01:50:51;1.75;1.75;1.25
68698;PMS7003;55680;48.850;2.310;2023-09-07T01:53:17;6.00;3.00;3.00
68698;PMS7003;55680;48.850;2.310;2023-09-07T01:55:43;1.00;1.00;1.00
68698;PMS7003;55680;48.850;2.310;2023-09-07T01:58:08;1.25;1.00;0.75
68698;PMS7003;55680;48.850;2.310;2023-09-07T02:00:37;2.50;1.75;1.00
68698;PMS7003;55680;48.850;2.310;2023-09-07T02:03:04;1.75;1.75;1.00
68698;PMS7003;55680;48.850;2.310;2023-09-07T02:05:30;2.00;2.00;1.50
68698;PMS7003;55680;48.850;2.310;2023-09-07T02:07:57;1.25;1.25;1.00
68698;PMS7003;55680;48.850;2.310;2023-09-07T02:10:22;1.75;1.75;1.00
68698;PMS7003;55680;48.850;2.310;2023-09-07T02:12:48;2.00;2.00;0.25
68698;PMS7003;55680;48.850;2.310;2023-09-07T02:15:14;4.75;2.00;1.25
68698;PMS7003;55680;48.850;2.310;2023-09-07T02:17:39;6.00;4.00;2.25
68698;PMS7003;55680;48.850;2.310;2023-09-07T02:20:05;2.25;2.25;1.75
68698;PMS7003;55680;48.850;2.310;2023-09-07T02:22:35;1.00;1.00;1.00
68698;PMS7003;55680;48.850;2.310;2023-09-07T02:25:01;2.00;2.00;1.00
68698;PMS7003;55680;48.850;2.310;2023-09-07T02:27:28;2.00;2.00;2.00
68698;PMS7003;55680;48.850;2.310;2023-09-07T02:29:53;4.50;2.00;1.00
68698;PMS7003;55680;48.850;2.310;2023-09-07T02:32:19;1.50;1.50;1.00
68698;PMS7003;55680;48.850;2.310;2023-09-07T02:34:44;1.75;1.75;1.00
68698;PMS7003;55680;48.850;2.310;2023-09-07T02:37:10;1.25;1.25;1.00
68698;PMS7003;55680;48.850;2.310;2023-09-07T02:39:35;4.50;2.00;1.00
68698;PMS7003;55680;48.850;2.310;2023-09-07T02:42:01;9.00;2.00;1.00
68698;PMS7003;55680;48.850;2.310;2023-09-07T02:44:26;5.50;1.00;1.00
68698;PMS7003;55680;48.850;2.310;2023-09-07T02:46:52;1.25;1.00;1.00
68698;PMS7003;55680;48.850;2.310;2023-09-07T02:49:17;2.75;2.00;2.00
68698;PMS7003;55680;48.850;2.310;2023-09-07T02:51:43;1.50;1.50;1.00
68698;PMS7003;55680;48.850;2.310;2023-09-07T02:54:09;1.00;1.00;1.00
68698;PMS7003;55680;48.850;2.310;2023-09-07T02:56:34;2.00;1.00;1.00
68698;PMS7003;55680;48.850;2.310;2023-09-07T02:59:00;1.75;1.25;1.00
68698;PMS7003;55680;48.850;2.310;2023-09-07T03:01:25;2.75;2.75;2.00
68698;PMS7003;55680;48.850;2.310;2023-09-07T03:03:50;2.00;2.00;1.00
68698;PMS7003;55680;48.850;2.310;2023-09-07T03:06:16;2.00;2.00;1.00
68698;PMS7003;55680;48.850;2.310;2023-09-07T03:08:42;2.00;2.00;0.00
68698;PMS7003;55680;48.850;2.310;2023-09-07T03:11:08;3.50;3.50;2.25
68698;PMS7003;55680;48.850;2.310;2023-09-07T03:13:34;4.75;2.00;1.00
68698;PMS7003;55680;48.850;2.310;2023-09-07T03:16:00;1.25;1.25;1.00
68698;PMS7003;55680;48.850;2.310;2023-09-07T03:18:25;2.00;2.00;1.00
68698;PMS7003;55680;48.850;2.310;2023-09-07T03:20:53;2.50;2.00;1.00
68698;PMS7003;55680;48.850;2.310;2023-09-07T03:23:19;3.50;1.00;1.00
68698;PMS7003;55680;48.850;2.310;2023-09-07T03:25:44;5.00;2.00;1.25
68698;PMS7003;55680;48.850;2.310;2023-09-07T03:28:10;1.00;1.00;1.00
68698;PMS7003;55680;48.850;2.310;2023-09-07T03:30:35;2.00;2.00;1.00
68698;PMS7003;55680;48.850;2.310;2023-09-07T03:33:01;1.00;1.00;1.00
68698;PMS7003;55680;48.850;2.310;2023-09-07T03:35:28;2.00;2.00;2.00
68698;PMS7003;55680;48.850;2.310;2023-09-07T03:37:54;3.25;1.50;1.00
68698;PMS7003;55680;48.850;2.310;2023-09-07T03:40:20;6.00;3.25;1.00
68698;PMS7003;55680;48.850;2.310;2023-09-07T03:42:45;2.00;2.00;1.75
68698;PMS7003;55680;48.850;2.310;2023-09-07T03:45:11;4.75;4.75;3.00
68698;PMS7003;55680;48.850;2.310;2023-09-07T03:47:37;6.00;2.00;1.00
68698;PMS7003;55680;48.850;2.310;2023-09-07T03:50:03;4.75;2.00;1.50
68698;PMS7003;55680;48.850;2.310;2023-09-07T03:52:28;3.00;3.00;1.75
68698;PMS7003;55680;48.850;2.310;2023-09-07T03:54:54;3.25;1.00;0.75
68698;PMS7003;55680;48.850;2.310;2023-09-07T03:57:22;5.25;3.25;2.50
68698;PMS7003;55680;48.850;2.310;2023-09-07T03:59:48;2.00;2.00;1.00
68698;PMS7003;55680;48.850;2.310;2023-09-07T04:02:14;3.00;3.00;1.25
68698;PMS7003;55680;48.850;2.310;2023-09-07T04:04:40;1.25;1.25;1.00
68698;PMS7003;55680;48.850;2.310;2023-09-07T04:07:05;3.25;1.50;1.00
68698;PMS7003;55680;48.850;2.310;2023-09-07T04:09:32;2.00;1.75;0.25
68698;PMS7003;55680;48.850;2.310;2023-09-07T04:11:57;1.75;1.75;1.00
68698;PMS7003;55680;48.850;2.310;2023-09-07T04:14:23;2.00;2.00;1.00
68698;PMS7003;55680;48.850;2.310;2023-09-07T04:16:48;1.75;1.75;1.00
68698;PMS7003;55680;48.850;2.310;2023-09-07T04:19:13;5.50;4.50;1.00
68698;PMS7003;55680;48.850;2.310;2023-09-07T04:21:39;2.00;2.00;2.00
68698;PMS7003;55680;48.850;2.310;2023-09-07T04:24:04;5.25;2.00;1.75
68698;PMS7003;55680;48.850;2.310;2023-09-07T04:26:30;5.00;5.00;4.00
68698;PMS7003;55680;48.850;2.310;2023-09-07T04:28:56;4.00;2.25;1.75
68698;PMS7003;55680;48.850;2.310;2023-09-07T04:31:21;2.00;2.00;2.00
68698;PMS7003;55680;48.850;2.310;2023-09-07T04:33:49;6.00;1.50;1.25
68698;PMS7003;55680;48.850;2.310;2023-09-07T04:36:14;9.00;5.00;2.00
68698;PMS7003;55680;48.850;2.310;2023-09-07T04:38:40;2.50;2.50;2.00
68698;PMS7003;55680;48.850;2.310;2023-09-07T04:41:09;8.00;4.00;4.00
68698;PMS7003;55680;48.850;2.310;2023-09-07T04:43:35;5.50;5.50;4.25
68698;PMS7003;55680;48.850;2.310;2023-09-07T04:46:01;6.00;2.00;1.75
68698;PMS7003;55680;48.850;2.310;2023-09-07T04:48:28;5.50;5.50;4.00
68698;PMS7003;55680;48.850;2.310;2023-09-07T04:53:30;2.00;2.00;2.00
68698;PMS7003;55680;48.850;2.310;2023-09-07T04:55:57;2.75;1.75;1.25
68698;PMS7003;55680;48.850;2.310;2023-09-07T04:58:23;9.00;5.00;4.25
68698;PMS7003;55680;48.850;2.310;2023-09-07T05:00:48;5.50;2.75;1.50
68698;PMS7003;55680;48.850;2.310;2023-09-07T05:03:14;1.00;1.00;0.75
68698;PMS7003;55680;48.850;2.310;2023-09-07T05:05:40;3.75;1.00;1.00
68698;PMS7003;55680;48.850;2.310;2023-09-07T05:08:06;5.00;5.00;2.00
68698;PMS7003;55680;48.850;2.310;2023-09-07T05:10:34;2.50;2.50;2.00
68698;PMS7003;55680;48.850;2.310;2023-09-07T05:13:00;4.50;4.50;3.50
68698;PMS7003;55680;48.850;2.310;2023-09-07T05:15:26;5.50;4.00;2.50
68698;PMS7003;55680;48.850;2.310;2023-09-07T05:17:54;9.00;5.00;2.50
68698;PMS7003;55680;48.850;2.310;2023-09-07T05:20:20;6.00;3.50;3.25
68698;PMS7003;55680;48.850;2.310;2023-09-07T05:22:46;3.00;2.50;1.25
68698;PMS7003;55680;48.850;2.310;2023-09-07T05:25:11;3.50;2.00;1.75
68698;PMS7003;55680;48.850;2.310;2023-09-07T05:27:38;2.75;1.50;1.00
68698;PMS7003;55680;48.850;2.310;2023-09-07T05:30:03;5.75;2.75;2.00
68698;PMS7003;55680;48.850;2.310;2023-09-07T05:32:30;2.00;2.00;1.00
68698;PMS7003;55680;48.850;2.310;2023-09-07T05:34:55;6.75;5.25;2.00
68698;PMS7003;55680;48.850;2.310;2023-09-07T05:37:20;2.00;2.00;2.00
68698;PMS7003;55680;48.850;2.310;2023-09-07T05:39:46;6.25;3.75;2.00
68698;PMS7003;55680;48.850;2.310;2023-09-07T05:42:11;3.00;1.25;1.00
68698;PMS7003;55680;48.850;2.310;2023-09-07T05:44:37;2.00;2.00;2.00
68698;PMS7003;55680;48.850;2.310;2023-09-07T05:47:03;2.00;2.00;1.00
68698;PMS7003;55680;48.850;2.310;2023-09-07T05:49:29;7.75;5.50;3.50
68698;PMS7003;55680;48.850;2.310;2023-09-07T05:51:54;4.00;4.00;1.75
68698;PMS7003;55680;48.850;2.310;2023-09-07T05:54:20;3.00;2.00;1.50
68698;PMS7003;55680;48.850;2.310;2023-09-07T05:56:45;7.50;2.00;1.00
68698;PMS7003;55680;48.850;2.310;2023-09-07T05:59:11;9.00;5.00;3.25
68698;PMS7003;55680;48.850;2.310;2023-09-07T06:01:36;5.00;2.50;2.00
68698;PMS7003;55680;48.850;2.310;2023-09-07T06:04:02;2.00;2.00;1.00
68698;PMS7003;55680;48.850;2.310;2023-09-07T06:06:28;6.75;5.00;2.75
68698;PMS7003;55680;48.850;2.310;2023-09-07T06:08:54;5.00;3.00;2.00
68698;PMS7003;55680;48.850;2.310;2023-09-07T06:11:19;2.25;2.25;1.00
68698;PMS7003;55680;48.850;2.310;2023-09-07T06:13:45;7.50;3.00;2.00
68698;PMS7003;55680;48.850;2.310;2023-09-07T06:16:11;7.00;2.00;2.00
68698;PMS7003;55680;48.850;2.310;2023-09-07T06:18:37;2.75;2.75;2.00
68698;PMS7003;55680;48.850;2.310;2023-09-07T06:21:03;5.00;5.00;2.00
68698;PMS7003;55680;48.850;2.310;2023-09-07T06:23:30;1.00;1.00;1.00
68698;PMS7003;55680;48.850;2.310;2023-09-07T06:25:56;6.00;5.00;4.00
68698;PMS7003;55680;48.850;2.310;2023-09-07T06:28:21;6.50;4.00;2.00
68698;PMS7003;55680;48.850;2.310;2023-09-07T06:30:47;4.50;4.00;2.00
68698;PMS7003;55680;48.850;2.310;2023-09-07T06:33:12;2.00;1.50;0.75
68698;PMS7003;55680;48.850;2.310;2023-09-07T06:35:38;5.00;5.00;3.00
68698;PMS7003;55680;48.850;2.310;2023-09-07T06:38:03;9.25;6.50;3.50
68698;PMS7003;55680;48.850;2.310;2023-09-07T06:40:29;12.00;8.00;5.00
68698;PMS7003;55680;48.850;2.310;2023-09-07T06:42:55;2.00;2.00;1.00
68698;PMS7003;55680;48.850;2.310;2023-09-07T06:45:21;3.00;3.00;2.00
68698;PMS7003;55680;48.850;2.310;2023-09-07T06:47:49;7.25;5.25;5.00
68698;PMS7003;55680;48.850;2.310;2023-09-07T06:50:15;6.00;5.50;3.75
68698;PMS7003;55680;48.850;2.310;2023-09-07T06:52:41;3.00;3.00;2.75
68698;PMS7003;55680;48.850;2.310;2023-09-07T06:55:06;6.25;5.00;3.00
68698;PMS7003;55680;48.850;2.310;2023-09-07T06:57:32;4.00;4.00;3.00
68698;PMS7003;55680;48.850;2.310;2023-09-07T06:59:58;7.50;5.50;4.50
68698;PMS7003;55680;48.850;2.310;2023-09-07T07:02:24;6.00;4.00;3.00
68698;PMS7003;55680;48.850;2.310;2023-09-07T07:04:49;7.00;4.25;3.00
68698;PMS7003;55680;48.850;2.310;2023-09-07T07:07:15;6.50;5.50;4.25
68698;PMS7003;55680;48.850;2.310;2023-09-07T07:09:41;6.00;6.00;3.25
68698;PMS7003;55680;48.850;2.310;2023-09-07T07:12:06;6.75;5.75;4.25
68698;PMS7003;55680;48.850;2.310;2023-09-07T07:14:31;10.00;5.50;4.00
68698;PMS7003;55680;48.850;2.310;2023-09-07T07:16:57;7.25;6.00;5.00
68698;PMS7003;55680;48.850;2.310;2023-09-07T07:19:22;8.00;6.00;4.00
68698;PMS7003;55680;48.850;2.310;2023-09-07T07:21:49;9.50;7.25;5.75
68698;PMS7003;55680;48.850;2.310;2023-09-07T07:24:15;8.25;6.25;4.25
68698;PMS7003;55680;48.850;2.310;2023-09-07T07:26:40;7.00;7.00;4.75
68698;PMS7003;55680;48.850;2.310;2023-09-07T07:29:06;6.50;6.50;3.75
68698;PMS7003;55680;48.850;2.310;2023-09-07T07:31:31;7.50;7.50;5.75
68698;PMS7003;55680;48.850;2.310;2023-09-07T07:33:56;10.00;8.00;6.50
68698;PMS7003;55680;48.850;2.310;2023-09-07T07:36:22;8.00;7.25;6.00
68698;PMS7003;55680;48.850;2.310;2023-09-07T07:38:48;6.75;6.75;4.25
68698;PMS7003;55680;48.850;2.310;2023-09-07T07:41:13;8.50;5.75;4.25
68698;PMS7003;55680;48.850;2.310;2023-09-07T07:43:39;5.50;5.50;4.75
68698;PMS7003;55680;48.850;2.310;2023-09-07T07:46:04;9.00;8.25;5.50
68698;PMS7003;55680;48.850;2.310;2023-09-07T07:48:29;8.50;7.00;5.25
68698;PMS7003;55680;48.850;2.310;2023-09-07T07:50:55;6.00;6.00;4.75
68698;PMS7003;55680;48.850;2.310;2023-09-07T07:53:20;8.50;7.25;6.00
68698;PMS7003;55680;48.850;2.310;2023-09-07T07:55:46;6.00;6.00;4.25
68698;PMS7003;55680;48.850;2.310;2023-09-07T07:58:13;7.50;7.50;4.25
68698;PMS7003;55680;48.850;2.310;2023-09-07T08:00:39;10.50;7.25;4.75
68698;PMS7003;55680;48.850;2.310;2023-09-07T08:03:06;7.75;6.00;6.00
68698;PMS7003;55680;48.850;2.310;2023-09-07T08:05:32;7.50;6.75;4.75
68698;PMS7003;55680;48.850;2.310;2023-09-07T08:07:57;7.50;7.50;5.25
68698;PMS7003;55680;48.850;2.310;2023-09-07T08:10:23;8.25;8.25;6.00
68698;PMS7003;55680;48.850;2.310;2023-09-07T08:12:52;7.25;6.00;5.00
68698;PMS7003;55680;48.850;2.310;2023-09-07T08:15:18;8.50;7.25;5.50
68698;PMS7003;55680;48.850;2.310;2023-09-07T08:17:46;10.50;6.25;4.75
68698;PMS7003;55680;48.850;2.310;2023-09-07T08:20:12;8.00;6.25;5.00
68698;PMS7003;55680;48.850;2.310;2023-09-07T08:22:38;8.50;8.50;5.00
68698;PMS7003;55680;48.850;2.310;2023-09-07T08:25:07;8.00;7.00;5.00
68698;PMS7003;55680;48.850;2.310;2023-09-07T08:27:36;6.50;6.50;5.00
68698;PMS7003;55680;48.850;2.310;2023-09-07T08:30:01;10.00;8.25;5.25
68698;PMS7003;55680;48.850;2.310;2023-09-07T08:32:28;6.50;5.75;5.00
68698;PMS7003;55680;48.850;2.310;2023-09-07T08:34:55;10.25;8.25;6.00
68698;PMS7003;55680;48.850;2.310;2023-09-07T08:37:22;9.25;6.75;5.75
68698;PMS7003;55680;48.850;2.310;2023-09-07T08:39:49;2.75;2.75;1.50
68698;PMS7003;55680;48.850;2.310;2023-09-07T08:42:15;7.25;4.00;3.25
68698;PMS7003;55680;48.850;2.310;2023-09-07T08:44:40;4.75;4.75;3.25
68698;PMS7003;55680;48.850;2.310;2023-09-07T08:47:07;6.00;6.00;5.00
68698;PMS7003;55680;48.850;2.310;2023-09-07T08:49:33;15.50;11.00;8.00
68698;PMS7003;55680;48.850;2.310;2023-09-07T08:51:59;6.75;6.75;4.50
68698;PMS7003;55680;48.850;2.310;2023-09-07T08:54:27;6.75;6.75;5.75
68698;PMS7003;55680;48.850;2.310;2023-09-07T08:56:53;4.25;4.25;4.00
68698;PMS7003;55680;48.850;2.310;2023-09-07T08:59:18;5.25;5.25;5.00
68698;PMS7003;55680;48.850;2.310;2023-09-07T09:01:43;7.50;7.50;5.75
68698;PMS7003;55680;48.850;2.310;2023-09-07T09:04:09;7.75;6.50;4.50
68698;PMS7003;55680;48.850;2.310;2023-09-07T09:06:34;4.00;1.25;1.25
68698;PMS7003;55680;48.850;2.310;2023-09-07T09:09:00;8.50;7.00;5.00
68698;PMS7003;55680;48.850;2.310;2023-09-07T09:11:25;6.50;6.50;6.00
68698;PMS7003;55680;48.850;2.310;2023-09-07T09:13:53;6.75;5.25;4.25
68698;PMS7003;55680;48.850;2.310;2023-09-07T09:16:19;7.75;6.50;4.50
68698;PMS7003;55680;48.850;2.310;2023-09-07T09:18:57;6.75;6.75;5.75
68698;PMS7003;55680;48.850;2.310;2023-09-07T09:21:24;9.00;6.75;5.75
68698;PMS7003;55680;48.850;2.310;2023-09-07T09:23:51;7.00;6.50;5.50
68698;PMS7003;55680;48.850;2.310;2023-09-07T09:26:18;7.75;7.75;6.00
68698;PMS7003;55680;48.850;2.310;2023-09-07T09:28:44;11.25;5.75;4.00
68698;PMS7003;55680;48.850;2.310;2023-09-07T09:31:13;7.25;6.75;4.25
68698;PMS7003;55680;48.850;2.310;2023-09-07T09:33:39;7.75;5.50;4.50
68698;PMS7003;55680;48.850;2.310;2023-09-07T09:36:05;7.25;7.00;5.00
68698;PMS7003;55680;48.850;2.310;2023-09-07T09:38:31;8.75;6.75;5.00
68698;PMS7003;55680;48.850;2.310;2023-09-07T09:40:57;9.50;7.25;4.25
68698;PMS7003;55680;48.850;2.310;2023-09-07T09:43:23;8.25;6.75;4.25
68698;PMS7003;55680;48.850;2.310;2023-09-07T09:45:50;9.75;9.00;6.50
68698;PMS7003;55680;48.850;2.310;2023-09-07T09:48:17;8.75;7.75;7.00
68698;PMS7003;55680;48.850;2.310;2023-09-07T09:50:44;7.00;7.00;5.25
68698;PMS7003;55680;48.850;2.310;2023-09-07T09:53:11;5.25;5.25;4.00
68698;PMS7003;55680;48.850;2.310;2023-09-07T09:55:40;5.00;5.00;4.00
68698;PMS7003;55680;48.850;2.310;2023-09-07T09:58:06;5.50;5.50;2.75
68698;PMS7003;55680;48.850;2.310;2023-09-07T10:00:31;6.50;6.25;5.00
68698;PMS7003;55680;48.850;2.310;2023-09-07T10:03:10;4.25;4.25;3.50
68698;PMS7003;55680;48.850;2.310;2023-09-07T10:05:37;6.50;6.50;4.00
68698;PMS7003;55680;48.850;2.310;2023-09-07T10:08:08;6.00;4.00;3.50
68698;PMS7003;55680;48.850;2.310;2023-09-07T10:10:35;5.50;5.50;3.50
68698;PMS7003;55680;48.850;2.310;2023-09-07T10:13:01;7.50;5.50;4.75
68698;PMS7003;55680;48.850;2.310;2023-09-07T10:15:27;7.25;7.25;5.00
68698;PMS7003;55680;48.850;2.310;2023-09-07T10:18:06;7.50;6.25;5.50
68698;PMS7003;55680;48.850;2.310;2023-09-07T10:23:38;5.75;5.75;5.25
68698;PMS7003;55680;48.850;2.310;2023-09-07T10:26:05;6.00;6.00;5.50
68698;PMS7003;55680;48.850;2.310;2023-09-07T10:28:34;9.25;8.00;6.50
68698;PMS7003;55680;48.850;2.310;2023-09-07T10:31:03;11.25;8.25;6.75
68698;PMS7003;55680;48.850;2.310;2023-09-07T10:33:30;7.25;7.00;6.00
68698;PMS7003;55680;48.850;2.310;2023-09-07T10:35:58;5.50;4.25;3.00
68698;PMS7003;55680;48.850;2.310;2023-09-07T10:38:24;5.50;4.75;4.00
68698;PMS7003;55680;48.850;2.310;2023-09-07T10:40:54;11.75;9.25;5.50
68698;PMS7003;55680;48.850;2.310;2023-09-07T10:43:22;7.00;6.50;4.25
68698;PMS7003;55680;48.850;2.310;2023-09-07T10:45:49;8.50;8.50;6.75
68698;PMS7003;55680;48.850;2.310;2023-09-07T10:48:14;10.00;7.75;6.25
68698;PMS7003;55680;48.850;2.310;2023-09-07T10:50:42;6.50;6.00;4.75
68698;PMS7003;55680;48.850;2.310;2023-09-07T10:53:14;6.25;6.00;4.00
68698;PMS7003;55680;48.850;2.310;2023-09-07T10:55:40;3.75;3.75;3.00
68698;PMS7003;55680;48.850;2.310;2023-09-07T10:58:08;1.75;1.75;0.25
68698;PMS7003;55680;48.850;2.310;2023-09-07T11:00:34;5.75;4.50;3.25
68698;PMS7003;55680;48.850;2.310;2023-09-07T11:03:06;6.75;4.75;3.75
68698;PMS7003;55680;48.850;2.310;2023-09-07T11:05:32;7.75;6.00;5.00
68698;PMS7003;55680;48.850;2.310;2023-09-07T11:07:59;10.00;9.75;7.25
68698;PMS7003;55680;48.850;2.310;2023-09-07T11:10:26;8.75;7.00;5.50
68698;PMS7003;55680;48.850;2.310;2023-09-07T11:12:51;9.00;8.00;6.50
68698;PMS7003;55680;48.850;2.310;2023-09-07T11:15:18;8.50;8.00;6.00
68698;PMS7003;55680;48.850;2.310;2023-09-07T11:17:44;7.00;4.25;4.00
68698;PMS7003;55680;48.850;2.310;2023-09-07T11:20:11;6.00;6.00;5.00
68698;PMS7003;55680;48.850;2.310;2023-09-07T11:22:36;6.00;5.50;4.50
68698;PMS7003;55680;48.850;2.310;2023-09-07T11:25:04;6.75;6.75;5.00
68698;PMS7003;55680;48.850;2.310;2023-09-07T11:27:31;7.75;7.75;6.75
68698;PMS7003;55680;48.850;2.310;2023-09-07T11:29:57;8.00;6.50;6.00
68698;PMS7003;55680;48.850;2.310;2023-09-07T11:32:23;7.25;7.25;6.00
68698;PMS7003;55680;48.850;2.310;2023-09-07T11:34:52;9.50;9.50;5.75
68698;PMS7003;55680;48.850;2.310;2023-09-07T11:37:22;7.25;6.25;5.00
68698;PMS7003;55680;48.850;2.310;2023-09-07T11:39:50;7.50;5.00;4.00
68698;PMS7003;55680;48.850;2.310;2023-09-07T11:42:16;11.00;9.00;6.00
68698;PMS7003;55680;48.850;2.310;2023-09-07T11:44:41;9.25;6.25;6.00
68698;PMS7003;55680;48.850;2.310;2023-09-07T11:47:07;6.50;6.25;6.00
68698;PMS7003;55680;48.850;2.310;2023-09-07T11:49:32;6.25;5.75;3.75
68698;PMS7003;55680;48.850;2.310;2023-09-07T11:51:58;5.75;5.25;4.75
68698;PMS7003;55680;48.850;2.310;2023-09-07T11:54:23;5.00;5.00;4.00
68698;PMS7003;55680;48.850;2.310;2023-09-07T11:56:49;5.75;5.75;5.00
68698;PMS7003;55680;48.850;2.310;2023-09-07T11:59:14;5.00;4.00;3.00
68698;PMS7003;55680;48.850;2.310;2023-09-07T12:01:42;6.25;5.00;4.00
68698;PMS7003;55680;48.850;2.310;2023-09-07T12:04:08;6.50;5.00;4.50
68698;PMS7003;55680;48.850;2.310;2023-09-07T12:06:33;8.50;6.75;5.50
68698;PMS7003;55680;48.850;2.310;2023-09-07T12:08:59;8.00;8.00;5.75
68698;PMS7003;55680;48.850;2.310;2023-09-07T12:11:28;5.00;5.00;3.00
68698;PMS7003;55680;48.850;2.310;2023-09-07T12:13:55;7.75;6.00;4.25
68698;PMS7003;55680;48.850;2.310;2023-09-07T12:16:20;10.00;8.25;6.00
68698;PMS7003;55680;48.850;2.310;2023-09-07T12:18:45;7.00;7.00;6.00
68698;PMS7003;55680;48.850;2.310;2023-09-07T12:21:11;11.00;7.00;6.00
68698;PMS7003;55680;48.850;2.310;2023-09-07T12:23:36;7.00;7.00;6.00
68698;PMS7003;55680;48.850;2.310;2023-09-07T12:26:02;6.00;6.00;4.00
68698;PMS7003;55680;48.850;2.310;2023-09-07T12:28:29;6.25;6.25;5.75
68698;PMS7003;55680;48.850;2.310;2023-09-07T12:30:55;7.50;7.50;5.75
68698;PMS7003;55680;48.850;2.310;2023-09-07T12:33:20;4.75;3.25;2.25
68698;PMS7003;55680;48.850;2.310;2023-09-07T12:35:46;9.50;6.75;5.00
68698;PMS7003;55680;48.850;2.310;2023-09-07T12:38:11;7.00;7.00;5.50
68698;PMS7003;55680;48.850;2.310;2023-09-07T12:40:42;6.75;6.75;5.00
68698;PMS7003;55680;48.850;2.310;2023-09-07T12:43:07;8.00;8.00;6.50
68698;PMS7003;55680;48.850;2.310;2023-09-07T12:45:33;9.25;8.25;6.00
68698;PMS7003;55680;48.850;2.310;2023-09-07T12:47:58;8.00;5.75;4.50
68698;PMS7003;55680;48.850;2.310;2023-09-07T12:50:26;9.50;6.50;6.00
68698;PMS7003;55680;48.850;2.310;2023-09-07T12:52:51;7.25;7.25;5.50
68698;PMS7003;55680;48.850;2.310;2023-09-07T12:55:17;8.00;7.00;4.50
68698;PMS7003;55680;48.850;2.310;2023-09-07T12:57:43;7.50;6.50;4.50
68698;PMS7003;55680;48.850;2.310;2023-09-07T13:00:09;7.25;5.75;4.50
68698;PMS7003;55680;48.850;2.310;2023-09-07T13:02:36;10.25;8.00;6.25
68698;PMS7003;55680;48.850;2.310;2023-09-07T13:05:01;7.25;7.25;5.75
68698;PMS7003;55680;48.850;2.310;2023-09-07T13:07:30;10.25;9.25;7.75
68698;PMS7003;55680;48.850;2.310;2023-09-07T13:09:57;10.00;9.25;7.25
68698;PMS7003;55680;48.850;2.310;2023-09-07T13:12:22;8.75;8.50;6.75
68698;PMS7003;55680;48.850;2.310;2023-09-07T13:14:48;10.75;10.75;7.00
68698;PMS7003;55680;48.850;2.310;2023-09-07T13:17:13;8.25;8.25;6.75
68698;PMS7003;55680;48.850;2.310;2023-09-07T13:19:39;6.00;6.00;5.00
68698;PMS7003;55680;48.850;2.310;2023-09-07T13:22:05;11.00;8.50;6.00
68698;PMS7003;55680;48.850;2.310;2023-09-07T13:24:32;7.50;7.50;5.75
68698;PMS7003;55680;48.850;2.310;2023-09-07T13:26:58;7.50;7.00;6.00
68698;PMS7003;55680;48.850;2.310;2023-09-07T13:29:23;8.75;8.75;6.00
68698;PMS7003;55680;48.850;2.310;2023-09-07T13:31:49;12.00;11.00;8.25
68698;PMS7003;55680;48.850;2.310;2023-09-07T13:34:17;9.00;9.00;7.00
68698;PMS7003;55680;48.850;2.310;2023-09-07T13:36:43;9.25;7.75;6.00
68698;PMS7003;55680;48.850;2.310;2023-09-07T13:39:08;9.00;9.00;7.25
68698;PMS7003;55680;48.850;2.310;2023-09-07T13:41:34;8.00;8.00;7.00
68698;PMS7003;55680;48.850;2.310;2023-09-07T13:43:59;10.25;7.75;6.50
68698;PMS7003;55680;48.850;2.310;2023-09-07T13:46:25;9.00;8.00;6.75
68698;PMS7003;55680;48.850;2.310;2023-09-07T13:48:50;9.00;6.75;5.00
68698;PMS7003;55680;48.850;2.310;2023-09-07T13:51:16;11.25;8.25;7.00
68698;PMS7003;55680;48.850;2.310;2023-09-07T13:53:41;7.25;6.00;5.00
68698;PMS7003;55680;48.850;2.310;2023-09-07T13:56:07;8.50;7.00;6.25
68698;PMS7003;55680;48.850;2.310;2023-09-07T13:58:33;8.00;8.00;5.75
68698;PMS7003;55680;48.850;2.310;2023-09-07T14:00:58;7.25;7.25;5.50
68698;PMS7003;55680;48.850;2.310;2023-09-07T14:03:24;10.00;7.50;6.50
68698;PMS7003;55680;48.850;2.310;2023-09-07T14:05:49;6.75;6.75;6.25
68698;PMS7003;55680;48.850;2.310;2023-09-07T14:08:15;8.75;7.00;5.25
68698;PMS7003;55680;48.850;2.310;2023-09-07T14:10:40;7.50;7.50;6.00
68698;PMS7003;55680;48.850;2.310;2023-09-07T14:13:06;7.50;7.50;6.00
68698;PMS7003;55680;48.850;2.310;2023-09-07T14:15:31;8.50;7.00;5.00
68698;PMS7003;55680;48.850;2.310;2023-09-07T14:17:57;8.00;8.00;7.00
68698;PMS7003;55680;48.850;2.310;2023-09-07T14:20:22;5.75;5.75;4.75